sensor_id;sensor_type;location;lat;lon;timestamp;temperature;humidity
21811;DHT22;11067;48.788;9.208;2022-11-20T00:01:46;5.20;99.90
21811;DHT22;11067;48.788;9.208;2022-11-20T00:04:11;5.20;99.90
21811;DHT22;11067;48.788;9.208;2022-11-20T00:06:37;5.20;99.90
21811;DHT22;11067;48.788;9.208;2022-11-20T00:09:03;5.20;99.90
21811;DHT22;11067;48.788;9.208;2022-11-20T00:11:31;5.30;99.90
21811;DHT22;11067;48.788;9.208;2022-11-20T00:13:59;5.30;99.90
21811;DHT22;11067;48.788;9.208;2022-11-20T00:16:26;5.30;99.90
21811;DHT22;11067;48.788;9.208;2022-11-20T00:18:52;5.30;99.90
21811;DHT22;11067;48.788;9.208;2022-11-20T00:21:20;5.30;99.90
21811;DHT22;11067;48.788;9.208;2022-11-20T00:23:47;5.30;99.90
21811;DHT22;11067;48.788;9.208;2022-11-20T00:26:15;5.30;99.90
21811;DHT22;11067;48.788;9.208;2022-11-20T00:28:42;5.30;99.90
21811;DHT22;11067;48.788;9.208;2022-11-20T00:31:11;5.30;99.90
21811;DHT22;11067;48.788;9.208;2022-11-20T00:33:37;5.40;99.90
21811;DHT22;11067;48.788;9.208;2022-11-20T00:36:07;5.40;99.90
21811;DHT22;11067;48.788;9.208;2022-11-20T00:38:34;5.40;99.90
21811;DHT22;11067;48.788;9.208;2022-11-20T00:41:02;5.40;99.90
21811;DHT22;11067;48.788;9.208;2022-11-20T00:43:27;5.40;99.90
21811;DHT22;11067;48.788;9.208;2022-11-20T00:46:00;5.40;99.90
21811;DHT22;11067;48.788;9.208;2022-11-20T00:48:26;5.40;99.90
21811;DHT22;11067;48.788;9.208;2022-11-20T00:50:53;5.50;99.90
21811;DHT22;11067;48.788;9.208;2022-11-20T00:53:19;5.50;99.90
21811;DHT22;11067;48.788;9.208;2022-11-20T00:56:05;5.60;99.90
21811;DHT22;11067;48.788;9.208;2022-11-20T00:58:33;5.60;99.90
21811;DHT22;11067;48.788;9.208;2022-11-20T01:01:16;5.70;99.90
21811;DHT22;11067;48.788;9.208;2022-11-20T01:03:44;5.60;99.90
21811;DHT22;11067;48.788;9.208;2022-11-20T01:06:16;5.70;99.90
21811;DHT22;11067;48.788;9.208;2022-11-20T01:08:42;5.70;99.90
21811;DHT22;11067;48.788;9.208;2022-11-20T01:11:10;5.60;99.90
21811;DHT22;11067;48.788;9.208;2022-11-20T01:13:36;5.50;99.90
21811;DHT22;11067;48.788;9.208;2022-11-20T01:18:33;5.50;99.90
21811;DHT22;11067;48.788;9.208;2022-11-20T01:21:07;5.50;99.90
21811;DHT22;11067;48.788;9.208;2022-11-20T01:23:34;5.60;99.90
21811;DHT22;11067;48.788;9.208;2022-11-20T01:26:05;5.60;99.90
21811;DHT22;11067;48.788;9.208;2022-11-20T01:28:32;5.60;99.90
21811;DHT22;11067;48.788;9.208;2022-11-20T01:30:58;5.70;99.90
21811;DHT22;11067;48.788;9.208;2022-11-20T01:33:23;5.70;99.90
21811;DHT22;11067;48.788;9.208;2022-11-20T01:35:49;5.80;99.90
21811;DHT22;11067;48.788;9.208;2022-11-20T01:38:15;5.80;99.90
21811;DHT22;11067;48.788;9.208;2022-11-20T01:40:41;5.90;99.90
21811;DHT22;11067;48.788;9.208;2022-11-20T01:43:27;6.00;99.90
21811;DHT22;11067;48.788;9.208;2022-11-20T01:46:01;5.90;99.90
21811;DHT22;11067;48.788;9.208;2022-11-20T01:48:32;6.10;99.90
21811;DHT22;11067;48.788;9.208;2022-11-20T01:51:00;6.00;99.90
21811;DHT22;11067;48.788;9.208;2022-11-20T01:53:31;6.00;99.90
21811;DHT22;11067;48.788;9.208;2022-11-20T01:55:59;6.10;99.90
21811;DHT22;11067;48.788;9.208;2022-11-20T01:58:32;6.10;99.90
21811;DHT22;11067;48.788;9.208;2022-11-20T02:00:58;6.10;99.90
21811;DHT22;11067;48.788;9.208;2022-11-20T02:03:24;6.10;99.90
21811;DHT22;11067;48.788;9.208;2022-11-20T02:06:04;6.10;99.90
21811;DHT22;11067;48.788;9.208;2022-11-20T02:08:31;6.10;99.90
21811;DHT22;11067;48.788;9.208;2022-11-20T02:10:57;6.10;99.90
21811;DHT22;11067;48.788;9.208;2022-11-20T02:13:23;6.10;99.90
21811;DHT22;11067;48.788;9.208;2022-11-20T02:16:52;6.10;99.90
21811;DHT22;11067;48.788;9.208;2022-11-20T02:19:00;6.20;99.90
21811;DHT22;11067;48.788;9.208;2022-11-20T02:21:35;6.30;99.90
21811;DHT22;11067;48.788;9.208;2022-11-20T02:24:11;6.30;99.90
21811;DHT22;11067;48.788;9.208;2022-11-20T02:26:59;6.30;99.90
21811;DHT22;11067;48.788;9.208;2022-11-20T02:29:40;6.30;99.90
21811;DHT22;11067;48.788;9.208;2022-11-20T02:32:21;6.20;99.90
21811;DHT22;11067;48.788;9.208;2022-11-20T02:34:47;6.20;99.90
21811;DHT22;11067;48.788;9.208;2022-11-20T02:37:12;6.20;99.90
21811;DHT22;11067;48.788;9.208;2022-11-20T02:39:39;6.10;99.90
21811;DHT22;11067;48.788;9.208;2022-11-20T02:42:05;6.20;99.90
21811;DHT22;11067;48.788;9.208;2022-11-20T02:44:31;6.20;99.90
21811;DHT22;11067;48.788;9.208;2022-11-20T02:46:59;6.30;99.90
21811;DHT22;11067;48.788;9.208;2022-11-20T02:49:24;6.20;99.90
21811;DHT22;11067;48.788;9.208;2022-11-20T02:51:50;6.30;99.90
21811;DHT22;11067;48.788;9.208;2022-11-20T02:54:16;6.40;99.90
21811;DHT22;11067;48.788;9.208;2022-11-20T02:56:42;6.40;99.90
21811;DHT22;11067;48.788;9.208;2022-11-20T02:59:08;6.30;99.90
21811;DHT22;11067;48.788;9.208;2022-11-20T03:01:34;6.30;99.90
21811;DHT22;11067;48.788;9.208;2022-11-20T03:03:59;6.30;99.90
21811;DHT22;11067;48.788;9.208;2022-11-20T03:06:25;6.30;99.90
21811;DHT22;11067;48.788;9.208;2022-11-20T03:08:50;6.30;99.90
21811;DHT22;11067;48.788;9.208;2022-11-20T03:11:16;6.40;99.90
21811;DHT22;11067;48.788;9.208;2022-11-20T03:13:42;6.50;99.90
21811;DHT22;11067;48.788;9.208;2022-11-20T03:16:16;6.40;99.90
21811;DHT22;11067;48.788;9.208;2022-11-20T03:18:43;6.40;99.90
21811;DHT22;11067;48.788;9.208;2022-11-20T03:21:09;6.50;99.90
21811;DHT22;11067;48.788;9.208;2022-11-20T03:23:37;6.40;99.90
21811;DHT22;11067;48.788;9.208;2022-11-20T03:26:20;6.40;99.90
21811;DHT22;11067;48.788;9.208;2022-11-20T03:28:51;6.40;99.90
21811;DHT22;11067;48.788;9.208;2022-11-20T03:31:19;6.50;99.90
21811;DHT22;11067;48.788;9.208;2022-11-20T03:33:45;6.40;99.90
21811;DHT22;11067;48.788;9.208;2022-11-20T03:36:13;6.40;99.90
21811;DHT22;11067;48.788;9.208;2022-11-20T03:38:40;6.40;99.90
21811;DHT22;11067;48.788;9.208;2022-11-20T03:41:08;6.40;99.90
21811;DHT22;11067;48.788;9.208;2022-11-20T03:43:34;6.50;99.90
21811;DHT22;11067;48.788;9.208;2022-11-20T03:46:00;6.50;99.90
21811;DHT22;11067;48.788;9.208;2022-11-20T03:48:26;6.60;99.90
21811;DHT22;11067;48.788;9.208;2022-11-20T03:50:52;6.40;99.90
21811;DHT22;11067;48.788;9.208;2022-11-20T03:53:19;6.50;99.90
21811;DHT22;11067;48.788;9.208;2022-11-20T03:55:50;6.50;99.90
21811;DHT22;11067;48.788;9.208;2022-11-20T03:58:15;6.50;99.90
21811;DHT22;11067;48.788;9.208;2022-11-20T04:00:41;6.50;99.90
21811;DHT22;11067;48.788;9.208;2022-11-20T04:03:06;6.50;99.90
21811;DHT22;11067;48.788;9.208;2022-11-20T04:05:33;6.40;99.90
21811;DHT22;11067;48.788;9.208;2022-11-20T04:07:59;6.50;99.90
21811;DHT22;11067;48.788;9.208;2022-11-20T04:10:25;6.40;99.90
21811;DHT22;11067;48.788;9.208;2022-11-20T04:12:51;6.40;99.90
21811;DHT22;11067;48.788;9.208;2022-11-20T04:15:16;6.40;99.90
21811;DHT22;11067;48.788;9.208;2022-11-20T04:17:42;6.40;99.90
21811;DHT22;11067;48.788;9.208;2022-11-20T04:20:07;6.40;99.90
21811;DHT22;11067;48.788;9.208;2022-11-20T04:22:33;6.50;99.90
21811;DHT22;11067;48.788;9.208;2022-11-20T04:24:58;6.40;99.90
21811;DHT22;11067;48.788;9.208;2022-11-20T04:27:24;6.30;99.90
21811;DHT22;11067;48.788;9.208;2022-11-20T04:29:49;6.30;99.90
21811;DHT22;11067;48.788;9.208;2022-11-20T04:32:15;6.20;99.90
21811;DHT22;11067;48.788;9.208;2022-11-20T04:34:40;6.20;99.90
21811;DHT22;11067;48.788;9.208;2022-11-20T04:37:06;6.20;99.90
21811;DHT22;11067;48.788;9.208;2022-11-20T04:39:31;6.20;99.90
21811;DHT22;11067;48.788;9.208;2022-11-20T04:41:57;6.30;99.90
21811;DHT22;11067;48.788;9.208;2022-11-20T04:44:41;6.30;99.90
21811;DHT22;11067;48.788;9.208;2022-11-20T04:47:06;6.30;99.90
21811;DHT22;11067;48.788;9.208;2022-11-20T04:49:32;6.20;99.90
21811;DHT22;11067;48.788;9.208;2022-11-20T04:51:59;6.10;99.90
21811;DHT22;11067;48.788;9.208;2022-11-20T04:54:24;6.10;99.90
21811;DHT22;11067;48.788;9.208;2022-11-20T04:56:50;6.10;99.90
21811;DHT22;11067;48.788;9.208;2022-11-20T04:59:16;6.10;99.90
21811;DHT22;11067;48.788;9.208;2022-11-20T05:01:41;6.10;99.90
21811;DHT22;11067;48.788;9.208;2022-11-20T05:04:07;6.10;99.90
21811;DHT22;11067;48.788;9.208;2022-11-20T05:06:33;6.00;99.90
21811;DHT22;11067;48.788;9.208;2022-11-20T05:08:58;6.10;99.90
21811;DHT22;11067;48.788;9.208;2022-11-20T05:11:24;6.10;99.90
21811;DHT22;11067;48.788;9.208;2022-11-20T05:13:51;6.20;99.90
21811;DHT22;11067;48.788;9.208;2022-11-20T05:16:22;6.20;99.90
21811;DHT22;11067;48.788;9.208;2022-11-20T05:18:48;6.20;99.90
21811;DHT22;11067;48.788;9.208;2022-11-20T05:21:14;6.20;99.90
21811;DHT22;11067;48.788;9.208;2022-11-20T05:23:40;6.20;99.90
21811;DHT22;11067;48.788;9.208;2022-11-20T05:26:11;6.20;99.90
21811;DHT22;11067;48.788;9.208;2022-11-20T05:28:37;6.20;99.90
21811;DHT22;11067;48.788;9.208;2022-11-20T05:31:13;6.30;99.90
21811;DHT22;11067;48.788;9.208;2022-11-20T05:33:43;6.40;99.90
21811;DHT22;11067;48.788;9.208;2022-11-20T05:36:10;6.40;99.90
21811;DHT22;11067;48.788;9.208;2022-11-20T05:38:36;6.40;99.90
21811;DHT22;11067;48.788;9.208;2022-11-20T05:41:11;6.50;99.90
21811;DHT22;11067;48.788;9.208;2022-11-20T05:43:39;6.40;99.90
21811;DHT22;11067;48.788;9.208;2022-11-20T05:46:05;6.50;99.90
21811;DHT22;11067;48.788;9.208;2022-11-20T05:48:32;6.40;99.90
21811;DHT22;11067;48.788;9.208;2022-11-20T05:50:59;6.50;99.90
21811;DHT22;11067;48.788;9.208;2022-11-20T05:53:25;6.40;99.90
21811;DHT22;11067;48.788;9.208;2022-11-20T05:56:00;6.50;99.90
21811;DHT22;11067;48.788;9.208;2022-11-20T05:58:26;6.50;99.90
21811;DHT22;11067;48.788;9.208;2022-11-20T06:00:52;6.50;99.90
21811;DHT22;11067;48.788;9.208;2022-11-20T06:03:18;6.50;99.90
21811;DHT22;11067;48.788;9.208;2022-11-20T06:05:44;6.60;99.90
21811;DHT22;11067;48.788;9.208;2022-11-20T06:08:09;6.60;99.90
21811;DHT22;11067;48.788;9.208;2022-11-20T06:10:35;6.60;99.90
21811;DHT22;11067;48.788;9.208;2022-11-20T06:13:00;6.60;99.90
21811;DHT22;11067;48.788;9.208;2022-11-20T06:15:26;6.70;99.90
21811;DHT22;11067;48.788;9.208;2022-11-20T06:17:53;6.70;99.90
21811;DHT22;11067;48.788;9.208;2022-11-20T06:20:19;6.70;99.90
21811;DHT22;11067;48.788;9.208;2022-11-20T06:22:45;6.60;99.90
21811;DHT22;11067;48.788;9.208;2022-11-20T06:25:10;6.70;99.90
21811;DHT22;11067;48.788;9.208;2022-11-20T06:27:36;6.70;99.90
21811;DHT22;11067;48.788;9.208;2022-11-20T06:30:01;6.80;99.90
21811;DHT22;11067;48.788;9.208;2022-11-20T06:32:27;6.90;99.90
21811;DHT22;11067;48.788;9.208;2022-11-20T06:34:52;6.80;99.90
21811;DHT22;11067;48.788;9.208;2022-11-20T06:37:18;6.80;99.90
21811;DHT22;11067;48.788;9.208;2022-11-20T06:39:43;6.80;99.90
21811;DHT22;11067;48.788;9.208;2022-11-20T06:42:09;6.70;99.90
21811;DHT22;11067;48.788;9.208;2022-11-20T06:44:34;6.80;99.90
21811;DHT22;11067;48.788;9.208;2022-11-20T06:47:00;6.80;99.90
21811;DHT22;11067;48.788;9.208;2022-11-20T06:49:26;6.80;99.90
21811;DHT22;11067;48.788;9.208;2022-11-20T06:51:51;6.80;99.90
21811;DHT22;11067;48.788;9.208;2022-11-20T06:54:17;6.70;99.90
21811;DHT22;11067;48.788;9.208;2022-11-20T06:56:46;6.70;99.90
21811;DHT22;11067;48.788;9.208;2022-11-20T06:59:13;6.70;99.90
21811;DHT22;11067;48.788;9.208;2022-11-20T07:01:38;6.70;99.90
21811;DHT22;11067;48.788;9.208;2022-11-20T07:04:04;6.70;99.90
21811;DHT22;11067;48.788;9.208;2022-11-20T07:06:29;6.60;99.90
21811;DHT22;11067;48.788;9.208;2022-11-20T07:08:55;6.60;99.90
21811;DHT22;11067;48.788;9.208;2022-11-20T07:11:20;6.60;99.90
21811;DHT22;11067;48.788;9.208;2022-11-20T07:13:46;6.60;99.90
21811;DHT22;11067;48.788;9.208;2022-11-20T07:16:12;6.70;99.90
21811;DHT22;11067;48.788;9.208;2022-11-20T07:18:37;6.70;99.90
21811;DHT22;11067;48.788;9.208;2022-11-20T07:21:05;6.80;99.90
21811;DHT22;11067;48.788;9.208;2022-11-20T07:23:31;6.90;99.90
21811;DHT22;11067;48.788;9.208;2022-11-20T07:25:57;6.90;99.90
21811;DHT22;11067;48.788;9.208;2022-11-20T07:28:23;7.00;99.90
21811;DHT22;11067;48.788;9.208;2022-11-20T07:30:52;7.00;99.90
21811;DHT22;11067;48.788;9.208;2022-11-20T07:33:18;7.10;99.90
21811;DHT22;11067;48.788;9.208;2022-11-20T07:35:44;7.10;99.90
21811;DHT22;11067;48.788;9.208;2022-11-20T07:38:10;7.00;99.90
21811;DHT22;11067;48.788;9.208;2022-11-20T07:40:35;7.00;99.90
21811;DHT22;11067;48.788;9.208;2022-11-20T07:43:01;7.10;99.90
21811;DHT22;11067;48.788;9.208;2022-11-20T07:45:26;7.10;99.90
21811;DHT22;11067;48.788;9.208;2022-11-20T07:47:52;7.10;99.90
21811;DHT22;11067;48.788;9.208;2022-11-20T07:50:19;7.10;99.90
21811;DHT22;11067;48.788;9.208;2022-11-20T07:52:44;7.20;99.90
21811;DHT22;11067;48.788;9.208;2022-11-20T07:55:10;7.30;99.90
21811;DHT22;11067;48.788;9.208;2022-11-20T07:57:36;7.50;99.90
21811;DHT22;11067;48.788;9.208;2022-11-20T08:00:03;7.50;99.90
21811;DHT22;11067;48.788;9.208;2022-11-20T08:02:29;7.50;99.90
21811;DHT22;11067;48.788;9.208;2022-11-20T08:04:55;7.50;99.90
21811;DHT22;11067;48.788;9.208;2022-11-20T08:07:20;7.40;99.90
21811;DHT22;11067;48.788;9.208;2022-11-20T08:09:46;7.60;99.90
21811;DHT22;11067;48.788;9.208;2022-11-20T08:12:19;7.50;99.90
21811;DHT22;11067;48.788;9.208;2022-11-20T08:15:05;7.60;99.90
21811;DHT22;11067;48.788;9.208;2022-11-20T08:17:31;7.70;99.90
21811;DHT22;11067;48.788;9.208;2022-11-20T08:19:56;7.60;99.90
21811;DHT22;11067;48.788;9.208;2022-11-20T08:22:22;7.60;99.90
21811;DHT22;11067;48.788;9.208;2022-11-20T08:24:48;7.70;99.90
21811;DHT22;11067;48.788;9.208;2022-11-20T08:27:13;7.70;99.90
21811;DHT22;11067;48.788;9.208;2022-11-20T08:29:39;7.80;99.90
21811;DHT22;11067;48.788;9.208;2022-11-20T08:32:05;7.90;99.90
21811;DHT22;11067;48.788;9.208;2022-11-20T08:34:30;7.80;99.90
21811;DHT22;11067;48.788;9.208;2022-11-20T08:36:56;7.80;99.90
21811;DHT22;11067;48.788;9.208;2022-11-20T08:39:21;7.90;99.90
21811;DHT22;11067;48.788;9.208;2022-11-20T08:41:47;7.80;99.90
21811;DHT22;11067;48.788;9.208;2022-11-20T08:44:12;7.80;99.90
21811;DHT22;11067;48.788;9.208;2022-11-20T08:46:40;7.80;99.90
21811;DHT22;11067;48.788;9.208;2022-11-20T08:49:08;8.00;99.90
21811;DHT22;11067;48.788;9.208;2022-11-20T08:51:34;8.00;99.90
21811;DHT22;11067;48.788;9.208;2022-11-20T08:54:00;8.10;99.90
21811;DHT22;11067;48.788;9.208;2022-11-20T08:56:26;8.20;99.90
21811;DHT22;11067;48.788;9.208;2022-11-20T08:58:51;8.20;99.90
21811;DHT22;11067;48.788;9.208;2022-11-20T09:01:20;8.30;99.90
21811;DHT22;11067;48.788;9.208;2022-11-20T09:03:46;8.40;99.90
21811;DHT22;11067;48.788;9.208;2022-11-20T09:06:13;8.40;99.90
21811;DHT22;11067;48.788;9.208;2022-11-20T09:08:39;8.50;99.90
21811;DHT22;11067;48.788;9.208;2022-11-20T09:11:05;8.40;99.90
21811;DHT22;11067;48.788;9.208;2022-11-20T09:13:32;8.60;99.90
21811;DHT22;11067;48.788;9.208;2022-11-20T09:16:00;8.50;99.90
21811;DHT22;11067;48.788;9.208;2022-11-20T09:18:27;8.50;99.90
21811;DHT22;11067;48.788;9.208;2022-11-20T09:20:59;8.50;99.90
21811;DHT22;11067;48.788;9.208;2022-11-20T09:23:26;8.60;99.90
21811;DHT22;11067;48.788;9.208;2022-11-20T09:25:52;8.60;99.90
21811;DHT22;11067;48.788;9.208;2022-11-20T09:28:20;8.60;99.90
21811;DHT22;11067;48.788;9.208;2022-11-20T09:30:46;8.60;99.90
21811;DHT22;11067;48.788;9.208;2022-11-20T09:33:11;8.60;99.90
21811;DHT22;11067;48.788;9.208;2022-11-20T09:35:37;8.60;99.90
21811;DHT22;11067;48.788;9.208;2022-11-20T09:38:05;8.70;99.90
21811;DHT22;11067;48.788;9.208;2022-11-20T09:40:31;8.60;99.90
21811;DHT22;11067;48.788;9.208;2022-11-20T09:43:19;8.60;99.90
21811;DHT22;11067;48.788;9.208;2022-11-20T09:46:21;8.60;99.90
21811;DHT22;11067;48.788;9.208;2022-11-20T09:49:15;8.60;99.90
21811;DHT22;11067;48.788;9.208;2022-11-20T09:54:54;8.60;99.90
21811;DHT22;11067;48.788;9.208;2022-11-20T09:57:32;8.50;99.90
21811;DHT22;11067;48.788;9.208;2022-11-20T10:00:00;8.60;99.90
21811;DHT22;11067;48.788;9.208;2022-11-20T10:02:55;8.60;99.90
21811;DHT22;11067;48.788;9.208;2022-11-20T10:05:27;8.50;99.90
21811;DHT22;11067;48.788;9.208;2022-11-20T10:08:19;8.60;99.90
21811;DHT22;11067;48.788;9.208;2022-11-20T10:11:04;8.60;99.90
21811;DHT22;11067;48.788;9.208;2022-11-20T10:22:21;8.50;99.90
21811;DHT22;11067;48.788;9.208;2022-11-20T10:30:14;8.40;99.90
21811;DHT22;11067;48.788;9.208;2022-11-20T10:32:43;8.40;99.90
21811;DHT22;11067;48.788;9.208;2022-11-20T10:35:23;8.20;99.90
21811;DHT22;11067;48.788;9.208;2022-11-20T10:37:56;8.00;99.90
21811;DHT22;11067;48.788;9.208;2022-11-20T10:40:31;7.90;99.90
21811;DHT22;11067;48.788;9.208;2022-11-20T10:43:03;7.70;99.90
21811;DHT22;11067;48.788;9.208;2022-11-20T10:45:57;7.70;99.90
21811;DHT22;11067;48.788;9.208;2022-11-20T10:48:25;7.70;99.90
21811;DHT22;11067;48.788;9.208;2022-11-20T10:56:14;7.60;99.90
21811;DHT22;11067;48.788;9.208;2022-11-20T11:01:30;7.60;99.90
21811;DHT22;11067;48.788;9.208;2022-11-20T11:03:56;7.50;99.90
21811;DHT22;11067;48.788;9.208;2022-11-20T11:06:35;7.50;99.90
21811;DHT22;11067;48.788;9.208;2022-11-20T11:09:13;7.60;99.90
21811;DHT22;11067;48.788;9.208;2022-11-20T11:11:40;7.70;99.90
21811;DHT22;11067;48.788;9.208;2022-11-20T11:14:07;7.70;99.90
21811;DHT22;11067;48.788;9.208;2022-11-20T11:16:33;7.80;99.90
21811;DHT22;11067;48.788;9.208;2022-11-20T11:19:14;7.70;99.90
21811;DHT22;11067;48.788;9.208;2022-11-20T11:21:52;7.70;99.90
21811;DHT22;11067;48.788;9.208;2022-11-20T11:24:21;7.70;99.90
21811;DHT22;11067;48.788;9.208;2022-11-20T11:27:00;7.80;99.90
21811;DHT22;11067;48.788;9.208;2022-11-20T11:29:30;7.90;99.90
21811;DHT22;11067;48.788;9.208;2022-11-20T11:32:07;7.90;99.90
21811;DHT22;11067;48.788;9.208;2022-11-20T11:34:34;8.00;99.90
21811;DHT22;11067;48.788;9.208;2022-11-20T11:37:00;8.00;99.90
21811;DHT22;11067;48.788;9.208;2022-11-20T11:39:30;8.20;99.90
21811;DHT22;11067;48.788;9.208;2022-11-20T11:41:57;8.30;99.90
21811;DHT22;11067;48.788;9.208;2022-11-20T11:44:32;8.30;99.90
21811;DHT22;11067;48.788;9.208;2022-11-20T11:47:31;8.40;99.90
21811;DHT22;11067;48.788;9.208;2022-11-20T11:52:28;8.70;99.90
21811;DHT22;11067;48.788;9.208;2022-11-20T11:54:57;8.70;99.90
21811;DHT22;11067;48.788;9.208;2022-11-20T11:57:47;8.80;99.90
21811;DHT22;11067;48.788;9.208;2022-11-20T12:00:16;8.70;99.90
21811;DHT22;11067;48.788;9.208;2022-11-20T12:10:57;9.20;99.90
21811;DHT22;11067;48.788;9.208;2022-11-20T12:16:00;9.30;99.90
21811;DHT22;11067;48.788;9.208;2022-11-20T12:18:27;9.20;99.90
21811;DHT22;11067;48.788;9.208;2022-11-20T12:24:06;8.90;99.90
21811;DHT22;11067;48.788;9.208;2022-11-20T12:29:44;8.70;99.90
21811;DHT22;11067;48.788;9.208;2022-11-20T12:39:49;9.50;99.90
21811;DHT22;11067;48.788;9.208;2022-11-20T12:42:21;9.30;99.90
21811;DHT22;11067;48.788;9.208;2022-11-20T12:59:10;10.00;99.90
21811;DHT22;11067;48.788;9.208;2022-11-20T13:01:45;10.00;99.90
21811;DHT22;11067;48.788;9.208;2022-11-20T13:04:39;9.70;99.90
21811;DHT22;11067;48.788;9.208;2022-11-20T13:07:12;9.70;99.90
21811;DHT22;11067;48.788;9.208;2022-11-20T13:09:48;10.00;99.90
21811;DHT22;11067;48.788;9.208;2022-11-20T13:12:34;9.90;99.90
21811;DHT22;11067;48.788;9.208;2022-11-20T13:20:14;9.90;99.90
21811;DHT22;11067;48.788;9.208;2022-11-20T13:22:52;9.90;99.90
21811;DHT22;11067;48.788;9.208;2022-11-20T13:25:33;10.00;99.90
21811;DHT22;11067;48.788;9.208;2022-11-20T13:28:23;9.90;99.90
21811;DHT22;11067;48.788;9.208;2022-11-20T13:30:52;9.90;99.90
21811;DHT22;11067;48.788;9.208;2022-11-20T13:33:31;9.80;99.90
21811;DHT22;11067;48.788;9.208;2022-11-20T13:36:06;9.70;99.90
21811;DHT22;11067;48.788;9.208;2022-11-20T13:38:47;9.70;99.90
21811;DHT22;11067;48.788;9.208;2022-11-20T13:41:28;9.60;99.90
21811;DHT22;11067;48.788;9.208;2022-11-20T13:46:45;9.70;99.90
21811;DHT22;11067;48.788;9.208;2022-11-20T13:49:33;9.70;99.90
21811;DHT22;11067;48.788;9.208;2022-11-20T13:58:36;9.50;99.90
21811;DHT22;11067;48.788;9.208;2022-11-20T14:03:35;9.30;99.90
21811;DHT22;11067;48.788;9.208;2022-11-20T14:06:04;9.30;99.90
21811;DHT22;11067;48.788;9.208;2022-11-20T14:08:47;9.10;99.90
21811;DHT22;11067;48.788;9.208;2022-11-20T14:11:16;9.10;99.90
21811;DHT22;11067;48.788;9.208;2022-11-20T14:14:24;9.30;99.90
21811;DHT22;11067;48.788;9.208;2022-11-20T14:16:51;9.00;99.90
21811;DHT22;11067;48.788;9.208;2022-11-20T14:21:47;8.70;99.90
21811;DHT22;11067;48.788;9.208;2022-11-20T14:24:13;8.80;99.90
21811;DHT22;11067;48.788;9.208;2022-11-20T14:26:45;8.70;99.90
21811;DHT22;11067;48.788;9.208;2022-11-20T14:29:20;8.60;99.90
21811;DHT22;11067;48.788;9.208;2022-11-20T14:31:47;8.40;99.90
21811;DHT22;11067;48.788;9.208;2022-11-20T14:34:19;8.40;99.90
21811;DHT22;11067;48.788;9.208;2022-11-20T14:36:45;8.40;99.90
21811;DHT22;11067;48.788;9.208;2022-11-20T14:39:12;8.30;99.90
21811;DHT22;11067;48.788;9.208;2022-11-20T14:41:53;8.30;99.90
21811;DHT22;11067;48.788;9.208;2022-11-20T14:44:33;8.40;99.90
21811;DHT22;11067;48.788;9.208;2022-11-20T14:47:00;8.40;99.90
21811;DHT22;11067;48.788;9.208;2022-11-20T14:49:29;8.50;99.90
21811;DHT22;11067;48.788;9.208;2022-11-20T14:52:09;8.50;99.90
21811;DHT22;11067;48.788;9.208;2022-11-20T14:54:46;8.50;99.90
21811;DHT22;11067;48.788;9.208;2022-11-20T14:57:32;8.50;99.90
21811;DHT22;11067;48.788;9.208;2022-11-20T15:02:41;8.40;99.90
21811;DHT22;11067;48.788;9.208;2022-11-20T15:05:07;8.50;99.90
21811;DHT22;11067;48.788;9.208;2022-11-20T15:07:36;8.40;99.90
21811;DHT22;11067;48.788;9.208;2022-11-20T15:10:07;8.40;99.90
21811;DHT22;11067;48.788;9.208;2022-11-20T15:12:46;8.30;99.90
21811;DHT22;11067;48.788;9.208;2022-11-20T15:15:17;8.30;99.90
21811;DHT22;11067;48.788;9.208;2022-11-20T15:17:44;8.30;99.90
21811;DHT22;11067;48.788;9.208;2022-11-20T15:20:14;8.20;99.90
21811;DHT22;11067;48.788;9.208;2022-11-20T15:22:41;8.10;99.90
21811;DHT22;11067;48.788;9.208;2022-11-20T15:25:17;8.10;99.90
21811;DHT22;11067;48.788;9.208;2022-11-20T15:27:43;8.00;99.90
21811;DHT22;11067;48.788;9.208;2022-11-20T15:30:14;7.90;99.90
21811;DHT22;11067;48.788;9.208;2022-11-20T15:32:41;7.80;99.90
21811;DHT22;11067;48.788;9.208;2022-11-20T15:35:07;7.70;99.90
21811;DHT22;11067;48.788;9.208;2022-11-20T15:37:33;7.60;99.90
21811;DHT22;11067;48.788;9.208;2022-11-20T15:39:58;7.60;99.90
21811;DHT22;11067;48.788;9.208;2022-11-20T15:42:24;7.50;99.90
21811;DHT22;11067;48.788;9.208;2022-11-20T15:44:49;7.50;99.90
21811;DHT22;11067;48.788;9.208;2022-11-20T15:47:15;7.50;99.90
21811;DHT22;11067;48.788;9.208;2022-11-20T15:49:42;7.50;99.90
21811;DHT22;11067;48.788;9.208;2022-11-20T15:52:15;7.40;99.90
21811;DHT22;11067;48.788;9.208;2022-11-20T15:54:41;7.30;99.90
21811;DHT22;11067;48.788;9.208;2022-11-20T15:57:07;7.30;99.90
21811;DHT22;11067;48.788;9.208;2022-11-20T15:59:32;7.40;99.90
21811;DHT22;11067;48.788;9.208;2022-11-20T16:01:58;7.40;99.90
21811;DHT22;11067;48.788;9.208;2022-11-20T16:04:24;7.40;99.90
21811;DHT22;11067;48.788;9.208;2022-11-20T16:06:50;7.40;99.90
21811;DHT22;11067;48.788;9.208;2022-11-20T16:09:16;7.30;99.90
21811;DHT22;11067;48.788;9.208;2022-11-20T16:11:41;7.30;99.90
21811;DHT22;11067;48.788;9.208;2022-11-20T16:14:10;7.30;99.90
21811;DHT22;11067;48.788;9.208;2022-11-20T16:16:54;7.30;99.90
21811;DHT22;11067;48.788;9.208;2022-11-20T16:19:19;7.30;99.90
21811;DHT22;11067;48.788;9.208;2022-11-20T16:21:45;7.30;99.90
21811;DHT22;11067;48.788;9.208;2022-11-20T16:24:13;7.20;99.90
21811;DHT22;11067;48.788;9.208;2022-11-20T16:26:39;7.20;99.90
21811;DHT22;11067;48.788;9.208;2022-11-20T16:29:05;7.20;99.90
21811;DHT22;11067;48.788;9.208;2022-11-20T16:31:32;7.20;99.90
21811;DHT22;11067;48.788;9.208;2022-11-20T16:34:03;7.20;99.90
21811;DHT22;11067;48.788;9.208;2022-11-20T16:36:29;7.10;99.90
21811;DHT22;11067;48.788;9.208;2022-11-20T16:39:00;7.10;99.90
21811;DHT22;11067;48.788;9.208;2022-11-20T16:41:29;7.20;99.90
21811;DHT22;11067;48.788;9.208;2022-11-20T16:43:57;7.10;99.90
21811;DHT22;11067;48.788;9.208;2022-11-20T16:46:25;7.20;99.90
21811;DHT22;11067;48.788;9.208;2022-11-20T16:49:04;7.20;99.90
21811;DHT22;11067;48.788;9.208;2022-11-20T16:51:33;7.20;99.90
21811;DHT22;11067;48.788;9.208;2022-11-20T16:54:04;7.20;99.90
21811;DHT22;11067;48.788;9.208;2022-11-20T16:56:31;7.20;99.90
21811;DHT22;11067;48.788;9.208;2022-11-20T16:58:58;7.20;99.90
21811;DHT22;11067;48.788;9.208;2022-11-20T17:01:25;7.20;99.90
21811;DHT22;11067;48.788;9.208;2022-11-20T17:04:00;7.20;99.90
21811;DHT22;11067;48.788;9.208;2022-11-20T17:06:29;7.30;99.90
21811;DHT22;11067;48.788;9.208;2022-11-20T17:08:55;7.40;99.90
21811;DHT22;11067;48.788;9.208;2022-11-20T17:11:21;7.40;99.90
21811;DHT22;11067;48.788;9.208;2022-11-20T17:13:48;7.50;99.90
21811;DHT22;11067;48.788;9.208;2022-11-20T17:16:18;7.40;99.90
21811;DHT22;11067;48.788;9.208;2022-11-20T17:18:45;7.50;99.90
21811;DHT22;11067;48.788;9.208;2022-11-20T17:21:11;7.60;99.90
21811;DHT22;11067;48.788;9.208;2022-11-20T17:23:39;7.50;99.90
21811;DHT22;11067;48.788;9.208;2022-11-20T17:26:10;7.50;99.90
21811;DHT22;11067;48.788;9.208;2022-11-20T17:28:41;7.50;99.90
21811;DHT22;11067;48.788;9.208;2022-11-20T17:31:10;7.50;99.90